createdAt,value
2018-09-19T00:01:26.937Z,56.67
2018-09-19T00:03:54.242Z,56.63
2018-09-19T00:06:21.496Z,56.96
2018-09-19T00:08:48.783Z,57.19
2018-09-19T00:11:16.048Z,57.42
2018-09-19T00:13:43.397Z,57.68
2018-09-19T00:16:10.643Z,57.91
2018-09-19T00:24:17.933Z,57.45
2018-09-19T00:26:45.177Z,57.45
2018-09-19T00:29:12.446Z,57.16
2018-09-19T00:31:39.722Z,57.40
2018-09-19T00:34:06.972Z,57.55
2018-09-19T00:36:34.218Z,57.66
2018-09-19T00:39:01.454Z,57.20
2018-09-19T00:41:28.712Z,56.86
2018-09-19T00:43:55.962Z,56.13
2018-09-19T00:46:23.208Z,55.69
2018-09-19T00:48:50.501Z,55.06
2018-09-19T00:51:17.748Z,54.61
2018-09-19T00:53:45.031Z,54.68
2018-09-19T00:56:12.489Z,55.01
2018-09-19T00:58:39.764Z,55.54
2018-09-19T01:01:07.006Z,55.69
2018-09-19T01:03:34.331Z,55.62
2018-09-19T01:06:01.584Z,55.81
2018-09-19T01:08:28.865Z,55.97
2018-09-19T01:10:56.104Z,56.27
2018-09-19T01:13:23.389Z,56.31
2018-09-19T01:15:50.619Z,56.96
2018-09-19T01:18:17.894Z,56.77
2018-09-19T01:20:45.243Z,56.62
2018-09-19T01:23:12.510Z,56.71
2018-09-19T01:25:39.764Z,56.76
2018-09-19T01:28:07.185Z,56.61
2018-09-19T01:30:34.425Z,56.78
2018-09-19T01:33:01.697Z,56.52
2018-09-19T01:35:28.941Z,56.36
2018-09-19T01:37:56.286Z,56.39
2018-09-19T01:40:23.560Z,56.97
2018-09-19T01:42:56.998Z,57.12
2018-09-19T01:45:24.264Z,56.95
2018-09-19T01:47:51.491Z,57.28
2018-09-19T01:50:18.756Z,56.70
2018-09-19T01:52:45.999Z,56.37
2018-09-19T01:55:13.269Z,56.63
2018-09-19T01:57:40.739Z,56.42
2018-09-19T02:00:08.042Z,56.04
2018-09-19T02:02:35.283Z,56.33
2018-09-19T02:05:02.523Z,55.48
2018-09-19T02:07:29.765Z,55.23
2018-09-19T02:09:57.020Z,54.94
2018-09-19T02:12:24.270Z,55.05
2018-09-19T02:14:51.511Z,55.07
2018-09-19T02:17:18.757Z,54.97
2018-09-19T02:19:46.047Z,54.81
2018-09-19T02:22:13.317Z,54.65
2018-09-19T02:24:40.643Z,54.76
2018-09-19T02:27:07.920Z,54.77
2018-09-19T02:29:35.186Z,54.62
2018-09-19T02:32:02.597Z,54.76
2018-09-19T02:34:29.863Z,54.82
2018-09-19T02:36:57.121Z,54.64
2018-09-19T02:39:24.366Z,54.72
2018-09-19T02:41:51.599Z,54.62
2018-09-19T02:44:18.859Z,54.58
2018-09-19T02:46:46.104Z,54.65
2018-09-19T02:49:13.396Z,54.67
2018-09-19T02:51:40.652Z,54.58
2018-09-19T02:54:07.935Z,54.78
2018-09-19T02:56:35.216Z,54.81
2018-09-19T02:59:02.493Z,55.00
2018-09-19T03:01:29.827Z,55.22
2018-09-19T03:03:57.132Z,55.37
2018-09-19T03:06:24.382Z,55.61
2018-09-19T03:08:51.624Z,56.31
2018-09-19T03:11:18.918Z,56.05
2018-09-19T03:13:46.188Z,55.84
2018-09-19T03:16:13.477Z,55.74
2018-09-19T03:19:02.512Z,55.73
2018-09-19T03:21:31.268Z,55.88
2018-09-19T03:23:58.827Z,55.68
2018-09-19T03:26:26.131Z,55.78
2018-09-19T03:28:53.382Z,56.13
2018-09-19T03:31:20.649Z,56.47
2018-09-19T03:33:47.895Z,56.31
2018-09-19T03:36:15.163Z,56.40
2018-09-19T03:38:42.398Z,56.47
2018-09-19T03:41:09.661Z,56.34
2018-09-19T03:43:36.886Z,56.31
2018-09-19T03:46:04.220Z,56.44
2018-09-19T03:48:31.441Z,56.70
2018-09-19T03:50:58.713Z,56.70
2018-09-19T03:53:25.960Z,56.62
2018-09-19T03:55:53.262Z,56.49
2018-09-19T03:58:20.569Z,56.78
2018-09-19T04:00:47.870Z,56.71
2018-09-19T04:03:15.159Z,56.46
2018-09-19T04:05:52.866Z,56.50
2018-09-19T04:08:20.142Z,56.41
2018-09-19T04:10:48.254Z,56.81
2018-09-19T04:13:15.600Z,57.21
2018-09-19T04:15:42.842Z,57.49
2018-09-19T04:18:10.274Z,58.06
2018-09-19T04:20:37.534Z,58.63
2018-09-19T04:23:04.840Z,58.61
2018-09-19T04:25:32.152Z,58.72
2018-09-19T04:27:59.377Z,59.18
2018-09-19T04:30:26.632Z,58.86
2018-09-19T04:32:53.894Z,59.20
2018-09-19T04:35:21.239Z,58.83
2018-09-19T04:37:48.518Z,58.33
2018-09-19T04:40:15.838Z,58.99
2018-09-19T04:42:43.235Z,58.93
2018-09-19T04:45:10.626Z,59.29
2018-09-19T04:47:37.913Z,59.61
2018-09-19T04:50:05.340Z,60.08
2018-09-19T04:52:35.242Z,61.57
2018-09-19T04:55:03.700Z,63.81
2018-09-19T04:57:31.130Z,65.02
2018-09-19T04:59:58.513Z,66.13
2018-09-19T05:02:26.596Z,67.10
2018-09-19T05:04:53.951Z,66.13
2018-09-19T05:07:21.466Z,67.16
2018-09-19T05:09:48.846Z,67.33
2018-09-19T05:12:16.526Z,66.06
2018-09-19T05:14:43.797Z,66.59
2018-09-19T05:17:11.372Z,66.76
2018-09-19T05:19:38.744Z,67.43
2018-09-19T05:22:06.341Z,67.08
2018-09-19T05:24:35.273Z,66.40
2018-09-19T05:27:03.386Z,67.22
2018-09-19T05:29:30.777Z,68.93
2018-09-19T05:31:58.186Z,69.88
2018-09-19T05:34:25.544Z,68.60
2018-09-19T05:36:54.473Z,66.87
2018-09-19T05:39:22.507Z,66.87
2018-09-19T05:41:49.871Z,67.08
2018-09-19T05:44:17.251Z,67.11
2018-09-19T05:46:44.647Z,67.78
2018-09-19T05:49:12.078Z,68.58
2018-09-19T05:51:39.387Z,67.16
2018-09-19T05:54:06.784Z,67.48
2018-09-19T05:56:34.252Z,67.60
2018-09-19T05:59:01.493Z,66.83
2018-09-19T06:01:29.246Z,67.06
2018-09-19T06:03:56.610Z,67.56
2018-09-19T06:06:23.952Z,68.44
2018-09-19T06:08:51.376Z,68.67
2018-09-19T06:11:18.781Z,68.90
2018-09-19T06:13:46.460Z,69.28
2018-09-19T06:16:13.844Z,69.42
2018-09-19T06:18:41.229Z,68.79
2018-09-19T06:21:08.519Z,69.03
2018-09-19T06:23:35.839Z,68.64
2018-09-19T06:26:03.212Z,68.22
2018-09-19T06:28:30.500Z,68.38
2018-09-19T06:30:57.816Z,66.44
2018-09-19T06:33:25.188Z,65.43
2018-09-19T06:35:52.451Z,64.03
2018-09-19T06:38:20.385Z,63.04
2018-09-19T06:40:47.936Z,62.04
2018-09-19T06:43:16.422Z,61.08
2018-09-19T06:45:44.702Z,60.39
2018-09-19T06:48:13.069Z,59.29
2018-09-19T06:50:40.783Z,58.76
2018-09-19T06:53:09.319Z,58.13
2018-09-19T06:55:37.420Z,57.24
2018-09-19T06:58:05.952Z,55.88
2018-09-19T07:00:33.612Z,55.37
2018-09-19T07:03:00.945Z,53.87
2018-09-19T07:05:28.281Z,52.93
2018-09-19T07:07:55.623Z,52.44
2018-09-19T07:10:22.909Z,51.19
2018-09-19T07:12:50.308Z,50.43
2018-09-19T07:15:17.922Z,48.87
2018-09-19T07:17:45.312Z,47.41
2018-09-19T07:20:12.635Z,46.02
2018-09-19T07:22:40.017Z,44.94
2018-09-19T07:25:07.550Z,44.04
2018-09-19T07:27:34.887Z,42.54
2018-09-19T07:30:02.264Z,41.96
2018-09-19T07:32:29.602Z,41.22
2018-09-19T07:34:56.956Z,40.26
2018-09-19T07:37:24.280Z,39.66
2018-09-19T07:39:51.593Z,40.25
2018-09-19T07:42:18.954Z,39.36
2018-09-19T07:44:46.300Z,39.51
2018-09-19T07:47:13.630Z,39.18
2018-09-19T07:49:40.978Z,38.93
2018-09-19T07:52:08.280Z,37.81
2018-09-19T07:54:35.749Z,37.53
2018-09-19T07:57:03.090Z,37.51
2018-09-19T07:59:30.649Z,37.83
2018-09-19T08:01:58.197Z,36.15
2018-09-19T08:04:25.600Z,36.06
2018-09-19T08:06:52.936Z,35.83
2018-09-19T08:09:20.449Z,35.51
2018-09-19T08:11:47.837Z,35.48
2018-09-19T08:14:15.228Z,34.40
2018-09-19T08:16:42.706Z,35.36
2018-09-19T08:19:10.904Z,34.37
2018-09-19T08:21:38.216Z,32.78
2018-09-19T08:24:05.520Z,33.52
2018-09-19T08:26:32.948Z,33.04
2018-09-19T08:29:00.512Z,32.25
2018-09-19T08:31:27.945Z,32.37
2018-09-19T08:33:55.339Z,31.40
2018-09-19T08:36:22.674Z,31.72
2018-09-19T08:38:50.011Z,31.87
2018-09-19T08:41:17.323Z,32.25
2018-09-19T08:43:44.723Z,32.52
2018-09-19T08:46:12.386Z,32.64
2018-09-19T08:48:39.778Z,32.86
2018-09-19T08:51:07.139Z,32.74
2018-09-19T08:53:34.501Z,31.85
2018-09-19T08:56:01.782Z,32.49
2018-09-19T08:58:29.308Z,32.03
2018-09-19T09:00:56.824Z,32.72
2018-09-19T09:03:24.147Z,33.46
2018-09-19T09:05:51.575Z,32.64
2018-09-19T09:08:18.861Z,32.23
2018-09-19T09:10:46.335Z,33.25
2018-09-19T09:13:13.815Z,33.78
2018-09-19T09:15:41.289Z,33.91
2018-09-19T09:18:08.727Z,33.65
2018-09-19T09:20:36.103Z,33.37
2018-09-19T09:23:03.619Z,31.54
2018-09-19T09:25:31.000Z,32.34
2018-09-19T09:27:58.494Z,33.07
2018-09-19T09:30:25.962Z,32.97
2018-09-19T09:32:53.316Z,32.60
2018-09-19T09:35:20.691Z,33.42
2018-09-19T09:37:48.912Z,32.52
2018-09-19T09:40:16.354Z,32.45
2018-09-19T09:42:43.631Z,32.50
2018-09-19T09:45:12.015Z,32.11
2018-09-19T09:47:39.824Z,31.50
2018-09-19T09:50:07.639Z,31.05
2018-09-19T09:52:34.928Z,30.46
2018-09-19T09:55:02.369Z,30.49
2018-09-19T09:57:29.678Z,30.14
2018-09-19T09:59:57.015Z,30.41
2018-09-19T10:02:24.964Z,31.46
2018-09-19T10:04:52.325Z,31.00
2018-09-19T10:07:19.632Z,31.09
2018-09-19T10:09:46.968Z,31.50
2018-09-19T10:12:15.260Z,30.91
2018-09-19T10:14:42.779Z,30.05
2018-09-19T10:17:10.083Z,30.31
2018-09-19T10:19:37.486Z,29.17
2018-09-19T10:22:04.885Z,28.90
2018-09-19T10:24:32.265Z,28.65
2018-09-19T10:27:00.131Z,29.16
2018-09-19T10:29:27.587Z,28.08
2018-09-19T10:31:54.894Z,27.12
2018-09-19T10:34:22.299Z,27.19
2018-09-19T10:36:50.116Z,27.89
2018-09-19T10:39:17.475Z,28.18
2018-09-19T10:41:44.785Z,28.18
2018-09-19T10:44:12.136Z,27.58
2018-09-19T10:46:39.514Z,27.21
2018-09-19T10:49:06.983Z,27.50
2018-09-19T10:51:34.277Z,27.28
2018-09-19T10:54:01.722Z,27.02
2018-09-19T10:56:29.700Z,26.86
2018-09-19T10:58:57.256Z,26.46
2018-09-19T11:01:25.611Z,26.45
2018-09-19T11:03:53.080Z,26.29
2018-09-19T11:06:20.448Z,25.68
2018-09-19T11:08:47.767Z,26.23
2018-09-19T11:11:15.260Z,26.27
2018-09-19T11:13:42.812Z,26.68
2018-09-19T11:16:10.267Z,26.77
2018-09-19T11:18:37.593Z,26.66
2018-09-19T11:23:39.169Z,26.09
2018-09-19T11:26:07.548Z,26.03
2018-09-19T11:28:36.119Z,26.30
2018-09-19T11:31:03.572Z,26.45
2018-09-19T11:33:31.044Z,26.20
2018-09-19T11:35:58.417Z,25.89
2018-09-19T11:38:34.905Z,26.60
2018-09-19T11:41:02.636Z,26.54
2018-09-19T11:43:30.759Z,25.34
2018-09-19T11:46:03.414Z,26.10
2018-09-19T11:48:30.741Z,26.31
2018-09-19T11:50:58.204Z,26.06
2018-09-19T11:53:27.635Z,27.46
2018-09-19T11:55:55.772Z,25.75
2018-09-19T11:58:23.117Z,26.78
2018-09-19T12:00:50.727Z,25.84
2018-09-19T12:03:18.089Z,26.41
2018-09-19T12:05:45.415Z,26.21
2018-09-19T12:08:12.845Z,26.55
2018-09-19T12:10:41.941Z,26.47
2018-09-19T12:13:09.258Z,26.31
2018-09-19T12:15:36.740Z,26.42
2018-09-19T12:18:04.199Z,26.18
2018-09-19T12:20:31.899Z,25.83
2018-09-19T12:22:59.274Z,26.28
2018-09-19T12:25:27.235Z,26.21
2018-09-19T12:27:54.652Z,26.65
2018-09-19T12:30:23.215Z,26.62
2018-09-19T12:32:50.555Z,26.44
2018-09-19T12:35:18.537Z,26.43
2018-09-19T12:37:46.106Z,26.62
2018-09-19T12:40:13.674Z,26.79
2018-09-19T12:42:41.078Z,27.00
2018-09-19T12:45:08.757Z,27.65
2018-09-19T12:47:36.228Z,28.05
2018-09-19T12:50:03.723Z,27.53
2018-09-19T12:52:31.195Z,27.27
2018-09-19T12:54:58.575Z,27.80
2018-09-19T12:57:25.924Z,27.22
2018-09-19T12:59:53.306Z,27.27
2018-09-19T13:02:20.700Z,27.54
2018-09-19T13:04:48.042Z,27.34
2018-09-19T13:07:16.216Z,27.45
2018-09-19T13:09:43.581Z,27.71
2018-09-19T13:12:10.991Z,28.06
2018-09-19T13:14:38.323Z,27.83
2018-09-19T13:17:05.711Z,28.03
2018-09-19T13:19:33.109Z,27.81
2018-09-19T13:22:00.491Z,27.85
2018-09-19T13:24:27.885Z,27.03
2018-09-19T13:26:55.281Z,26.79
2018-09-19T13:29:23.189Z,27.34
2018-09-19T13:31:50.614Z,27.59
2018-09-19T13:34:18.000Z,27.84
2018-09-19T13:36:45.415Z,28.03
2018-09-19T13:39:13.319Z,28.10
2018-09-19T13:41:42.269Z,27.66
2018-09-19T13:44:09.946Z,27.93
2018-09-19T13:46:37.952Z,27.64
2018-09-19T13:49:10.054Z,28.34
2018-09-19T13:51:38.135Z,28.41
2018-09-19T13:54:05.627Z,28.15
2018-09-19T13:56:33.745Z,28.10
2018-09-19T13:59:01.200Z,28.46
2018-09-19T14:01:28.657Z,28.15
2018-09-19T14:03:56.129Z,28.63
2018-09-19T14:06:23.617Z,28.70
2018-09-19T14:08:52.047Z,28.46
2018-09-19T14:11:19.380Z,28.77
2018-09-19T14:13:46.784Z,29.07
2018-09-19T14:16:14.181Z,29.21
2018-09-19T14:18:42.094Z,28.29
2018-09-19T14:21:09.907Z,28.99
2018-09-19T14:23:37.427Z,28.72
2018-09-19T14:26:04.855Z,28.63
2018-09-19T14:28:32.287Z,28.82
2018-09-19T14:31:00.701Z,29.36
2018-09-19T14:33:28.980Z,29.18
2018-09-19T14:35:57.188Z,29.88
2018-09-19T14:38:27.651Z,29.85
2018-09-19T14:40:55.568Z,29.59
2018-09-19T14:43:23.079Z,29.60
2018-09-19T14:45:50.452Z,29.64
2018-09-19T14:48:17.977Z,30.04
2018-09-19T14:50:46.921Z,30.46
2018-09-19T14:53:15.151Z,29.72
2018-09-19T14:55:43.249Z,29.98
2018-09-19T14:58:10.668Z,30.14
2018-09-19T15:00:37.977Z,30.34
2018-09-19T15:03:05.711Z,29.92
2018-09-19T15:05:33.071Z,30.21
2018-09-19T15:08:00.512Z,30.29
2018-09-19T15:10:29.907Z,30.66
2018-09-19T15:12:57.354Z,30.99
2018-09-19T15:15:24.809Z,30.71
2018-09-19T15:17:52.306Z,30.74
2018-09-19T15:20:19.657Z,30.95
2018-09-19T15:22:47.106Z,30.86
2018-09-19T15:25:14.579Z,30.89
2018-09-19T15:27:42.512Z,31.01
2018-09-19T15:30:09.886Z,30.75
2018-09-19T15:32:37.420Z,31.18
2018-09-19T15:35:05.728Z,31.29
2018-09-19T15:37:33.899Z,31.33
2018-09-19T15:40:01.324Z,31.45
2018-09-19T15:42:28.808Z,31.59
2018-09-19T15:44:56.167Z,31.52
2018-09-19T15:47:23.727Z,31.10
2018-09-19T15:49:51.240Z,31.16
2018-09-19T15:52:19.330Z,31.35
2018-09-19T15:54:46.825Z,31.68
2018-09-19T15:57:14.472Z,31.94
2018-09-19T15:59:42.734Z,32.04
2018-09-19T16:02:10.139Z,32.28
2018-09-19T16:04:37.619Z,32.32
2018-09-19T16:07:05.056Z,32.31
2018-09-19T16:09:33.101Z,32.64
2018-09-19T16:12:00.457Z,32.47
2018-09-19T16:14:27.917Z,32.84
2018-09-19T16:16:55.273Z,32.39
2018-09-19T16:19:22.723Z,32.35
2018-09-19T16:21:50.088Z,32.53
2018-09-19T16:24:17.443Z,33.14
2018-09-19T16:26:44.801Z,33.02
2018-09-19T16:29:12.251Z,33.71
2018-09-19T16:31:39.588Z,33.65
2018-09-19T16:34:07.201Z,33.53
2018-09-19T16:36:34.602Z,33.94
2018-09-19T16:39:02.246Z,34.79
2018-09-19T16:41:30.177Z,34.53
2018-09-19T16:44:04.309Z,34.70
2018-09-19T16:46:31.641Z,34.18
2018-09-19T16:49:10.932Z,34.61
2018-09-19T16:51:38.451Z,34.71
2018-09-19T16:54:05.859Z,35.17
2018-09-19T16:56:33.300Z,35.68
2018-09-19T16:59:00.792Z,35.25
2018-09-19T17:01:28.739Z,35.62
2018-09-19T17:03:56.367Z,35.92
2018-09-19T17:06:23.898Z,36.20
2018-09-19T17:08:51.260Z,36.84
2018-09-19T17:11:23.440Z,37.02
2018-09-19T17:13:55.396Z,37.34
2018-09-19T17:16:28.598Z,37.24
2018-09-19T17:19:02.522Z,37.71
2018-09-19T17:21:35.989Z,38.05
2018-09-19T17:24:09.456Z,38.50
2018-09-19T17:26:42.444Z,38.62
2018-09-19T17:29:15.796Z,38.50
2018-09-19T17:31:47.717Z,39.39
2018-09-19T17:34:19.447Z,39.45
2018-09-19T17:36:51.794Z,39.19
2018-09-19T17:39:23.432Z,39.22
2018-09-19T17:41:55.159Z,39.90
2018-09-19T17:44:24.689Z,39.76
2018-09-19T17:46:53.408Z,39.99
2018-09-19T17:49:21.928Z,39.78
2018-09-19T17:51:50.612Z,40.23
2018-09-19T17:54:19.105Z,40.18
2018-09-19T17:56:47.161Z,40.49
2018-09-19T17:59:15.113Z,40.45
2018-09-19T18:01:42.947Z,39.84
2018-09-19T18:04:10.912Z,40.20
2018-09-19T18:06:38.913Z,40.46
2018-09-19T18:09:07.560Z,40.21
2018-09-19T18:11:36.334Z,40.20
2018-09-19T18:14:04.515Z,40.26
2018-09-19T18:16:32.262Z,40.86
2018-09-19T18:19:00.382Z,40.25
2018-09-19T18:21:28.443Z,41.05
2018-09-19T18:23:56.293Z,40.67
2018-09-19T18:26:24.264Z,41.00
2018-09-19T18:28:52.799Z,40.96
2018-09-19T18:31:21.182Z,41.43
2018-09-19T18:33:49.670Z,41.40
2018-09-19T18:36:17.867Z,41.45
2018-09-19T18:38:45.612Z,41.95
2018-09-19T18:41:13.571Z,41.90
2018-09-19T18:43:41.392Z,42.37
2018-09-19T18:46:09.528Z,42.09
2018-09-19T18:48:37.386Z,42.74
2018-09-19T18:51:06.217Z,42.82
2018-09-19T18:53:34.170Z,42.93
2018-09-19T18:56:02.140Z,42.70
2018-09-19T18:58:30.033Z,43.33
2018-09-19T19:00:58.496Z,42.98
2018-09-19T19:03:26.454Z,43.07
2018-09-19T19:05:55.352Z,43.19
2018-09-19T19:08:23.586Z,43.63
2018-09-19T19:10:51.445Z,43.61
2018-09-19T19:13:20.171Z,43.87
2018-09-19T19:15:48.344Z,44.32
2018-09-19T19:18:16.503Z,44.08
2018-09-19T19:20:45.302Z,43.88
2018-09-19T19:23:13.140Z,44.12
2018-09-19T19:25:42.687Z,44.27
2018-09-19T19:28:10.819Z,44.68
2018-09-19T19:30:39.206Z,45.01
2018-09-19T19:33:07.298Z,45.19
2018-09-19T19:35:35.633Z,45.36
2018-09-19T19:38:04.690Z,44.97
2018-09-19T19:40:32.566Z,45.46
2018-09-19T19:43:00.720Z,45.88
2018-09-19T19:45:29.176Z,45.93
2018-09-19T19:47:57.083Z,45.81
2018-09-19T19:50:25.102Z,45.89
2018-09-19T19:52:53.554Z,46.09
2018-09-19T19:55:21.316Z,46.31
2018-09-19T19:57:49.893Z,46.63
2018-09-19T20:00:18.057Z,46.52
2018-09-19T20:02:45.797Z,47.07
2018-09-19T20:05:14.648Z,47.06
2018-09-19T20:07:43.172Z,46.81
2018-09-19T20:10:11.408Z,46.86
2018-09-19T20:12:39.244Z,46.85
2018-09-19T20:15:07.163Z,46.76
2018-09-19T20:17:35.248Z,46.52
2018-09-19T20:20:03.131Z,46.58
2018-09-19T20:22:31.069Z,47.28
2018-09-19T20:24:59.149Z,47.21
2018-09-19T20:27:26.883Z,47.04
2018-09-19T20:29:55.607Z,47.26
2018-09-19T20:32:23.847Z,47.45
2018-09-19T20:34:51.978Z,47.63
2018-09-19T20:37:19.897Z,47.34
2018-09-19T20:39:47.480Z,47.97
2018-09-19T20:42:15.917Z,47.88
2018-09-19T20:44:44.029Z,47.75
2018-09-19T20:47:12.075Z,48.17
2018-09-19T20:49:40.766Z,47.97
2018-09-19T20:52:08.725Z,48.54
2018-09-19T20:54:37.111Z,48.19
2018-09-19T20:57:05.233Z,48.56
2018-09-19T20:59:33.493Z,48.46
2018-09-19T21:02:01.672Z,48.33
2018-09-19T21:04:29.481Z,48.12
2018-09-19T21:06:57.182Z,48.48
2018-09-19T21:09:24.977Z,48.35
2018-09-19T21:11:52.897Z,48.79
2018-09-19T21:14:21.178Z,48.62
2018-09-19T21:16:48.499Z,48.73
2018-09-19T21:19:15.771Z,48.54
2018-09-19T21:21:43.230Z,48.58
2018-09-19T21:24:10.471Z,48.40
2018-09-19T21:26:38.308Z,48.21
2018-09-19T21:29:05.645Z,48.77
2018-09-19T21:31:33.171Z,48.83
2018-09-19T21:34:00.456Z,48.70
2018-09-19T21:36:27.712Z,48.14
2018-09-19T21:38:54.955Z,48.11
2018-09-19T21:41:22.367Z,48.09
2018-09-19T21:43:49.631Z,48.18
2018-09-19T21:46:16.932Z,48.59
2018-09-19T21:48:44.179Z,48.55
2018-09-19T21:51:11.464Z,47.96
2018-09-19T21:53:38.678Z,47.99
2018-09-19T21:56:06.030Z,48.32
2018-09-19T21:58:33.268Z,48.40
2018-09-19T22:01:06.480Z,48.36
2018-09-19T22:03:34.203Z,48.43
2018-09-19T22:06:01.480Z,47.99
2018-09-19T22:08:29.258Z,48.14
2018-09-19T22:10:56.532Z,48.61
2018-09-19T22:13:23.768Z,48.49
2018-09-19T22:15:51.038Z,49.08
2018-09-19T22:18:18.290Z,48.81
2018-09-19T22:20:45.508Z,48.75
2018-09-19T22:23:13.227Z,49.50
2018-09-19T22:25:40.546Z,49.05
2018-09-19T22:28:07.792Z,49.51
2018-09-19T22:30:35.036Z,49.15
2018-09-19T22:33:02.305Z,49.56
2018-09-19T22:35:29.552Z,49.54
2018-09-19T22:37:56.805Z,49.68
2018-09-19T22:40:24.035Z,49.85
2018-09-19T22:42:51.306Z,49.83
2018-09-19T22:45:19.156Z,50.17
2018-09-19T22:47:47.412Z,49.98
2018-09-19T22:50:14.707Z,50.30
2018-09-19T22:52:41.992Z,50.56
2018-09-19T22:55:09.224Z,50.64
2018-09-19T22:57:36.570Z,50.78
2018-09-19T23:00:04.000Z,51.07
2018-09-19T23:02:31.259Z,51.15
2018-09-19T23:04:58.524Z,51.29
2018-09-19T23:07:25.912Z,51.48
2018-09-19T23:09:53.446Z,51.47
2018-09-19T23:12:20.761Z,51.65
2018-09-19T23:14:48.019Z,51.85
2018-09-19T23:17:15.286Z,52.03
2018-09-19T23:19:42.542Z,52.48
2018-09-19T23:22:09.825Z,52.59
2018-09-19T23:24:37.475Z,52.74
2018-09-19T23:27:04.776Z,52.73
2018-09-19T23:29:32.059Z,52.76
2018-09-19T23:31:59.523Z,52.76
2018-09-19T23:34:26.767Z,52.96
2018-09-19T23:36:54.064Z,53.31
2018-09-19T23:39:21.313Z,53.57
2018-09-19T23:41:48.633Z,53.68
2018-09-19T23:44:15.864Z,53.92
2018-09-19T23:46:43.772Z,54.31
2018-09-19T23:49:11.040Z,54.37
2018-09-19T23:51:38.306Z,54.37
2018-09-19T23:54:05.892Z,54.55
2018-09-19T23:56:33.115Z,54.51
2018-09-19T23:59:00.373Z,54.72
